createdAt,value
2019-02-11T00:01:30.715Z,3.08
2019-02-11T00:06:34.173Z,2.53
2019-02-11T00:11:37.566Z,2.90
2019-02-11T00:16:40.954Z,2.80
2019-02-11T00:21:44.378Z,3.40
2019-02-11T00:26:47.787Z,3.40
2019-02-11T00:31:51.207Z,3.40
2019-02-11T00:36:54.278Z,3.90
2019-02-11T00:41:57.354Z,3.67
2019-02-11T00:47:00.447Z,3.67
2019-02-11T00:52:03.851Z,5.43
2019-02-11T00:57:07.250Z,4.67
2019-02-11T01:02:10.964Z,4.17
2019-02-11T01:07:14.359Z,3.80
2019-02-11T01:12:17.774Z,5.03
2019-02-11T01:17:20.843Z,4.20
2019-02-11T01:22:23.931Z,4.07
2019-02-11T01:27:27.334Z,4.17
2019-02-11T01:32:30.735Z,4.00
2019-02-11T01:37:35.699Z,3.90
2019-02-11T01:42:38.775Z,4.50
2019-02-11T01:47:42.171Z,4.40
2019-02-11T01:52:45.572Z,5.10
2019-02-11T01:57:48.947Z,4.67
2019-02-11T02:02:52.359Z,4.37
2019-02-11T02:07:55.757Z,4.80
2019-02-11T02:12:59.094Z,4.83
2019-02-11T02:18:02.170Z,5.07
2019-02-11T02:23:05.903Z,6.00
2019-02-11T02:28:09.306Z,4.40
2019-02-11T02:33:13.040Z,4.50
2019-02-11T02:38:16.355Z,4.97
2019-02-11T02:43:19.797Z,5.40
2019-02-11T02:48:22.904Z,4.90
2019-02-11T02:53:26.303Z,4.57
2019-02-11T02:58:29.767Z,4.97
2019-02-11T03:03:33.209Z,4.63
2019-02-11T03:08:36.614Z,3.93
2019-02-11T03:13:39.975Z,3.20
2019-02-11T03:18:43.367Z,4.67
2019-02-11T03:23:47.082Z,6.80
2019-02-11T03:28:51.306Z,6.77
2019-02-11T03:33:54.627Z,7.60
2019-02-11T03:38:58.070Z,8.23
2019-02-11T03:44:01.477Z,11.43
2019-02-11T03:49:04.791Z,7.10
2019-02-11T03:54:08.186Z,5.93
2019-02-11T03:59:12.011Z,7.17
2019-02-11T04:04:15.090Z,12.07
2019-02-11T04:09:19.529Z,10.57
2019-02-11T04:14:24.936Z,13.22
2019-02-11T04:19:28.343Z,13.53
2019-02-11T04:24:31.662Z,16.13
2019-02-11T04:29:35.058Z,10.63
2019-02-11T04:34:38.392Z,12.13
2019-02-11T04:39:41.706Z,15.07
2019-02-11T04:44:45.102Z,15.00
2019-02-11T04:49:48.508Z,16.90
2019-02-11T04:54:51.911Z,14.53
2019-02-11T04:59:55.262Z,16.20
2019-02-11T05:04:58.973Z,13.57
2019-02-11T05:10:02.703Z,14.50
2019-02-11T05:15:08.444Z,9.77
2019-02-11T05:20:11.986Z,14.47
2019-02-11T05:25:15.077Z,12.20
2019-02-11T05:30:18.412Z,9.90
2019-02-11T05:35:21.803Z,10.60
2019-02-11T05:40:25.232Z,10.43
2019-02-11T05:45:28.680Z,18.47
2019-02-11T05:50:32.086Z,12.10
2019-02-11T05:55:35.493Z,14.37
2019-02-11T06:00:39.202Z,12.93
2019-02-11T06:05:42.283Z,8.93
2019-02-11T06:10:45.631Z,10.83
2019-02-11T06:15:49.339Z,16.40
2019-02-11T06:20:52.822Z,14.13
2019-02-11T06:25:56.248Z,13.40
2019-02-11T06:30:59.718Z,15.37
2019-02-11T06:36:11.510Z,10.07
2019-02-11T06:41:07.568Z,16.90
2019-02-11T06:46:10.704Z,11.10
2019-02-11T06:51:14.078Z,11.77
2019-02-11T06:56:17.724Z,11.47
2019-02-11T07:01:21.107Z,10.93
2019-02-11T07:06:24.183Z,15.90
2019-02-11T07:11:27.922Z,9.70
2019-02-11T07:16:31.248Z,13.60
2019-02-11T07:21:35.158Z,10.53
2019-02-11T07:26:38.882Z,9.57
2019-02-11T07:31:42.278Z,10.33
2019-02-11T07:36:45.356Z,15.67
2019-02-11T07:42:06.964Z,13.13
2019-02-11T07:47:10.293Z,15.00
2019-02-11T07:52:13.694Z,11.03
2019-02-11T07:57:17.399Z,10.83
2019-02-11T08:02:20.791Z,14.90
2019-02-11T08:07:24.139Z,12.70
2019-02-11T08:12:27.565Z,13.60
2019-02-11T08:17:30.953Z,11.33
2019-02-11T08:22:34.291Z,14.93
2019-02-11T08:27:37.696Z,13.60
2019-02-11T08:32:41.084Z,9.50
2019-02-11T08:37:44.174Z,13.27
2019-02-11T08:42:47.838Z,10.13
2019-02-11T08:47:51.543Z,16.30
2019-02-11T08:52:54.639Z,11.43
2019-02-11T08:57:57.979Z,10.63
2019-02-11T09:03:01.391Z,13.10
2019-02-11T09:08:05.111Z,9.77
2019-02-11T09:13:08.505Z,8.67
2019-02-11T09:18:12.255Z,10.93
2019-02-11T09:23:15.569Z,9.63
2019-02-11T09:28:18.968Z,14.60
2019-02-11T09:33:22.039Z,12.87
2019-02-11T09:38:25.220Z,9.10
2019-02-11T09:43:28.622Z,9.10
2019-02-11T09:48:32.031Z,10.93
2019-02-11T09:53:35.740Z,8.13
2019-02-11T09:58:38.807Z,11.50
2019-02-11T10:03:42.247Z,11.57
2019-02-11T10:08:45.888Z,8.73
2019-02-11T10:13:49.604Z,8.00
2019-02-11T10:18:52.923Z,9.37
2019-02-11T10:23:56.634Z,8.57
2019-02-11T10:29:00.351Z,11.70
2019-02-11T10:34:03.439Z,8.33
2019-02-11T10:39:07.063Z,7.57
2019-02-11T10:44:10.171Z,11.87
2019-02-11T10:49:13.916Z,10.17
2019-02-11T10:54:17.323Z,11.30
2019-02-11T10:59:20.734Z,10.77
2019-02-11T11:04:24.116Z,8.87
2019-02-11T11:09:27.719Z,9.60
2019-02-11T11:14:31.203Z,8.43
2019-02-11T11:19:34.277Z,10.07
2019-02-11T11:24:37.919Z,7.07
2019-02-11T11:29:41.327Z,11.20
2019-02-11T11:34:45.058Z,9.67
2019-02-11T11:39:48.458Z,9.53
2019-02-11T11:44:51.790Z,8.80
2019-02-11T11:49:54.871Z,8.37
2019-02-11T11:54:57.938Z,7.37
2019-02-11T12:00:01.518Z,11.37
2019-02-11T12:05:05.737Z,8.03
2019-02-11T12:10:09.178Z,7.00
2019-02-11T12:15:15.109Z,9.87
2019-02-11T12:20:19.182Z,8.95
2019-02-11T12:25:22.569Z,9.85
2019-02-11T12:30:26.007Z,6.33
2019-02-11T12:35:29.404Z,13.43
2019-02-11T12:40:32.483Z,9.60
2019-02-11T12:45:35.960Z,7.20
2019-02-11T12:50:39.194Z,7.90
2019-02-11T12:55:42.594Z,10.97
2019-02-11T13:00:45.667Z,7.53
2019-02-11T13:05:49.077Z,9.97
2019-02-11T13:10:52.211Z,10.53
2019-02-11T13:16:00.955Z,10.10
2019-02-11T13:21:00.089Z,6.23
2019-02-11T13:26:03.299Z,7.93
2019-02-11T13:31:06.751Z,9.97
2019-02-11T13:36:09.852Z,7.20
2019-02-11T13:41:13.244Z,9.30
2019-02-11T13:46:16.651Z,9.17
2019-02-11T13:51:19.718Z,8.30
2019-02-11T13:56:23.451Z,6.47
2019-02-11T14:01:26.914Z,6.53
2019-02-11T14:06:30.070Z,9.20
2019-02-11T14:11:33.474Z,8.43
2019-02-11T14:16:36.858Z,11.30
2019-02-11T14:21:40.267Z,12.00
2019-02-11T14:26:43.372Z,9.00
2019-02-11T14:31:46.492Z,12.77
2019-02-11T14:36:50.118Z,12.03
2019-02-11T14:41:53.909Z,9.53
2019-02-11T14:46:57.031Z,8.20
2019-02-11T14:52:00.090Z,11.40
2019-02-11T14:57:03.178Z,12.37
2019-02-11T15:02:06.910Z,8.53
2019-02-11T15:07:10.247Z,8.60
2019-02-11T15:12:13.559Z,10.93
2019-02-11T15:17:16.624Z,7.57
2019-02-11T15:22:19.691Z,4.77
2019-02-11T15:27:22.772Z,8.07
2019-02-11T15:32:25.834Z,7.93
2019-02-11T15:37:28.893Z,5.60
2019-02-11T15:42:32.620Z,7.60
2019-02-11T15:47:36.031Z,7.33
2019-02-11T15:52:39.867Z,13.07
2019-02-11T15:57:43.550Z,8.50
2019-02-11T16:02:46.690Z,11.07
2019-02-11T16:07:50.095Z,9.53
2019-02-11T16:12:53.157Z,8.50
2019-02-11T16:17:56.631Z,7.43
2019-02-11T16:23:00.047Z,10.13
2019-02-11T16:28:03.132Z,9.53
2019-02-11T16:33:06.534Z,6.13
2019-02-11T16:38:09.827Z,8.87
2019-02-11T16:43:12.951Z,12.83
2019-02-11T16:48:16.270Z,8.17
2019-02-11T16:53:19.987Z,8.07
2019-02-11T16:58:23.708Z,13.17
2019-02-11T17:03:27.113Z,12.83
2019-02-11T17:08:30.187Z,12.43
2019-02-11T17:13:33.253Z,11.40
2019-02-11T17:18:36.334Z,13.60
2019-02-11T17:23:40.082Z,8.50
2019-02-11T17:28:43.492Z,14.23
2019-02-11T17:33:46.936Z,12.67
2019-02-11T17:38:50.609Z,14.13
2019-02-11T17:43:53.682Z,14.07
2019-02-11T17:48:57.088Z,12.63
2019-02-11T17:54:00.479Z,17.90
2019-02-11T17:59:03.887Z,12.13
2019-02-11T18:04:07.287Z,12.47
2019-02-11T18:09:10.917Z,12.63
2019-02-11T18:14:14.347Z,10.07
2019-02-11T18:19:25.759Z,11.13
2019-02-11T18:24:23.191Z,9.40
2019-02-11T18:29:26.527Z,13.17
2019-02-11T18:34:30.245Z,13.03
2019-02-11T18:39:33.692Z,9.97
2019-02-11T18:44:37.074Z,13.13
2019-02-11T18:49:40.470Z,15.23
2019-02-11T18:54:43.803Z,10.20
2019-02-11T18:59:47.203Z,13.17
2019-02-11T19:04:50.277Z,8.47
2019-02-11T19:09:53.584Z,11.73
2019-02-11T19:14:56.975Z,14.07
2019-02-11T19:20:00.650Z,15.33
2019-02-11T19:25:04.389Z,10.90
2019-02-11T19:30:13.352Z,10.20
2019-02-11T19:35:16.742Z,12.03
2019-02-11T19:40:21.279Z,12.13
2019-02-11T19:45:24.358Z,14.47
2019-02-11T19:50:27.820Z,10.87
2019-02-11T19:55:31.218Z,14.30
2019-02-11T20:00:34.293Z,12.60
2019-02-11T20:05:38.098Z,16.13
2019-02-11T20:10:41.476Z,13.27
2019-02-11T20:15:44.939Z,14.90
2019-02-11T20:20:48.320Z,14.43
2019-02-11T20:25:52.011Z,11.00
2019-02-11T20:30:56.796Z,16.83
2019-02-11T20:36:00.487Z,16.27
2019-02-11T20:41:03.558Z,20.37
2019-02-11T20:46:06.918Z,18.43
2019-02-11T20:51:10.009Z,14.33
2019-02-11T20:56:13.076Z,14.97
2019-02-11T21:01:16.480Z,20.50
2019-02-11T21:06:20.151Z,13.93
2019-02-11T21:11:23.222Z,16.47
2019-02-11T21:16:26.623Z,14.13
2019-02-11T21:21:30.100Z,18.13
2019-02-11T21:26:33.207Z,16.03
2019-02-11T21:31:37.015Z,15.30
2019-02-11T21:36:40.398Z,17.43
2019-02-11T21:41:44.058Z,22.60
2019-02-11T21:46:50.046Z,13.43
2019-02-11T21:51:53.494Z,20.07
2019-02-11T21:56:56.875Z,18.23
2019-02-11T22:02:00.275Z,16.50
2019-02-11T22:07:03.681Z,16.13
2019-02-11T22:12:06.746Z,18.60
2019-02-11T22:17:09.854Z,18.03
2019-02-11T22:22:13.229Z,17.07
2019-02-11T22:27:16.634Z,19.17
2019-02-11T22:32:19.707Z,15.68
2019-02-11T22:37:23.373Z,21.27
2019-02-11T22:42:26.790Z,21.50
2019-02-11T22:47:30.194Z,17.37
2019-02-11T22:52:33.267Z,18.77
2019-02-11T22:57:36.572Z,19.37
2019-02-11T23:02:39.642Z,17.93
2019-02-11T23:07:42.725Z,21.53
2019-02-11T23:12:46.130Z,15.83
2019-02-11T23:17:49.530Z,17.23
2019-02-11T23:22:52.598Z,13.83
2019-02-11T23:27:55.987Z,15.67
2019-02-11T23:32:59.721Z,16.17
2019-02-11T23:38:03.567Z,17.77
2019-02-11T23:43:06.646Z,18.70
2019-02-11T23:48:10.083Z,13.47
2019-02-11T23:53:13.872Z,14.50
2019-02-11T23:58:17.278Z,12.30
